New Bern, NC

2:46 PM EST on December 27, 2014 (GMT -0500)
Cherry Point Marine Corps Air Station | Change Station
CLOSE
Current Station
Airport
Location: Cherry Point,
Elevation: 26 ft
Nearby Weather Stations

Elev 26 ft 34.90 °N, 76.88 °W | Updated 52 minutes ago

Clear
Clear
64 °F
Feels Like 64 °F
N
4
Wind Variable Wind from WSW

Today
High -- | Low -- °F
--% Chance of Precip.
Yesterday
High -- | Low -- °F
Precip. -- in
7:15 AM 5:03 PM
Waxing Crescent, 39% visible
Pressure 30.25 in
Visibility 10.0 miles
Clouds Clear
Dew Point 37 °F
Humidity 37%
Rainfall 0.00 in
Snow Depth Not available.
UV 2 out of 12
Pollen 1.80 out of 12
Air Quality Not available.
Flu Activity Not available.
METAR KNKT 271854Z 25003KT 10SM CLR 18/03 A3026 RMK AO2 SLP242 T01780028 $

More Conditions Fewer Conditions

Pressure 30.25 in
Visibility 10.0 miles
Clouds Clear
Dew Point 37 °F
Humidity 37%
Rainfall 0.00 in
Snow Depth Not available.
UV 2 out of 12
Pollen 1.80 out of 12
Air Quality Not available.
Flu Activity Not available.
METAR KNKT 271854Z 25003KT 10SM CLR 18/03 A3026 RMK AO2 SLP242 T01780028 $

More Conditions Fewer Conditions

10-Day Weather Forecast

Almanac

Astronomy

Dec. 27, 2014 Rise Set
Actual Time
Civil Twilight
Nautical Twilight
Astronomical Twilight
Moon
Length of Visible Light
Length of Day
Tomorrow will be .
, % of the Moon is Illuminated

Today's Extremes

State Highs State Lows

Community

WunderPhotos

Upload Photos

1,781,028 photos uploaded!

WunderBlogs® & News

Nearby

Air Quality

  Air Quality AQ Index Pollutant
Not available.

Snow Depth

Station Depth Elevation

Earthquake Activity

City Distance Mag. Time & Date
Minimum magnitude displayed is 2.5.

Coastal Water Temperatures

Place Temperature

Nearby Weather Stations